2CUTH EGPE-EGPT
Flight info
| Callsign | 2CUTH |
|---|---|
| Flight time | 0h 45m |
| Altitude | 3000 |
| Route | VFR |
| Aircraft | BE36/L-SBDFGRY/S |
Departure
| Time | 2026-04-20 15:28 |
|---|---|
| Airport | Inverness Airport (EGPE) |
Arrival
| Time | 2026-04-20 16:14 |
|---|---|
| Airport | Perth/Scone Airport (EGPT) |
| Time | Latitude | Longitude | Altitude | Speed | Heading |
|---|---|---|---|---|---|
| 2026-04-20 15:23 | 57.54292 | -4.06175 | 34 ft | 0 kts | 17° |
| 2026-04-20 15:26 | 57.54297 | -4.06176 | 34 ft | 4 kts | 334° |
| 2026-04-20 15:26 | 57.54247 | -4.06228 | 34 ft | 17 kts | 160° |
| 2026-04-20 15:26 | 57.54139 | -4.06163 | 33 ft | 16 kts | 154° |
| 2026-04-20 15:27 | 57.54013 | -4.06156 | 33 ft | 24 kts | 185° |
| 2026-04-20 15:27 | 57.53829 | -4.06179 | 33 ft | 26 kts | 182° |
| 2026-04-20 15:27 | 57.53748 | -4.06066 | 33 ft | 12 kts | 119° |
| 2026-04-20 15:27 | 57.53713 | -4.05944 | 32 ft | 10 kts | 108° |
| 2026-04-20 15:28 | 57.53769 | -4.05796 | 33 ft | 39 kts | 49° |
| 2026-04-20 15:28 | 57.54089 | -4.05129 | 88 ft | 90 kts | 46° |
| 2026-04-20 15:28 | 57.54557 | -4.04236 | 395 ft | 101 kts | 45° |
| 2026-04-20 15:28 | 57.55042 | -4.03334 | 803 ft | 98 kts | 45° |
| 2026-04-20 15:29 | 57.55545 | -4.02408 | 1104 ft | 103 kts | 46° |
| 2026-04-20 15:29 | 57.55779 | -4.01223 | 1448 ft | 104 kts | 106° |
| 2026-04-20 15:29 | 57.55207 | -4.00510 | 1822 ft | 111 kts | 176° |
| 2026-04-20 15:29 | 57.54432 | -4.00551 | 2170 ft | 112 kts | 176° |
| 2026-04-20 15:30 | 57.53595 | -4.00553 | 2298 ft | 133 kts | 176° |
| 2026-04-20 15:30 | 57.52611 | -4.00564 | 2302 ft | 148 kts | 178° |
| 2026-04-20 15:30 | 57.51556 | -4.00574 | 2302 ft | 154 kts | 178° |
| 2026-04-20 15:30 | 57.50472 | -4.00579 | 2296 ft | 158 kts | 178° |
| 2026-04-20 15:31 | 57.49378 | -4.00492 | 2285 ft | 157 kts | 164° |
| 2026-04-20 15:31 | 57.48372 | -3.99769 | 2291 ft | 155 kts | 154° |
| 2026-04-20 15:31 | 57.47378 | -3.98989 | 2296 ft | 155 kts | 154° |
| 2026-04-20 15:31 | 57.46381 | -3.98214 | 2299 ft | 155 kts | 155° |
| 2026-04-20 15:32 | 57.45394 | -3.97434 | 2290 ft | 156 kts | 155° |
| 2026-04-20 15:32 | 57.44388 | -3.96643 | 2287 ft | 154 kts | 154° |
| 2026-04-20 15:32 | 57.43429 | -3.95889 | 2397 ft | 147 kts | 154° |
| 2026-04-20 15:32 | 57.42501 | -3.95160 | 2551 ft | 143 kts | 154° |
| 2026-04-20 15:33 | 57.41581 | -3.94440 | 2679 ft | 144 kts | 155° |
| 2026-04-20 15:33 | 57.40629 | -3.93690 | 2683 ft | 152 kts | 154° |
| 2026-04-20 15:33 | 57.39645 | -3.92904 | 2687 ft | 155 kts | 154° |
| 2026-04-20 15:33 | 57.38647 | -3.92114 | 2688 ft | 156 kts | 155° |
| 2026-04-20 15:34 | 57.37645 | -3.91318 | 2687 ft | 157 kts | 155° |
| 2026-04-20 15:34 | 57.36645 | -3.90517 | 2691 ft | 157 kts | 155° |
| 2026-04-20 15:34 | 57.35646 | -3.89717 | 2691 ft | 155 kts | 155° |
| 2026-04-20 15:34 | 57.34653 | -3.88915 | 2689 ft | 156 kts | 155° |
| 2026-04-20 15:35 | 57.33657 | -3.88108 | 2682 ft | 156 kts | 155° |
| 2026-04-20 15:35 | 57.32681 | -3.87325 | 2680 ft | 154 kts | 155° |
| 2026-04-20 15:35 | 57.31689 | -3.86526 | 2682 ft | 156 kts | 155° |
| 2026-04-20 15:35 | 57.30690 | -3.85717 | 2682 ft | 157 kts | 154° |
| 2026-04-20 15:36 | 57.29686 | -3.84915 | 2680 ft | 156 kts | 155° |
| 2026-04-20 15:36 | 57.28695 | -3.84119 | 2683 ft | 155 kts | 155° |
| 2026-04-20 15:36 | 57.27704 | -3.83325 | 2678 ft | 156 kts | 155° |
| 2026-04-20 15:36 | 57.26710 | -3.82535 | 2679 ft | 156 kts | 155° |
| 2026-04-20 15:37 | 57.25710 | -3.81732 | 2679 ft | 157 kts | 154° |
| 2026-04-20 15:37 | 57.24712 | -3.80938 | 2681 ft | 156 kts | 155° |
| 2026-04-20 15:37 | 57.23725 | -3.80153 | 2675 ft | 156 kts | 154° |
| 2026-04-20 15:37 | 57.22727 | -3.79357 | 2675 ft | 156 kts | 155° |
| 2026-04-20 15:38 | 57.21708 | -3.78665 | 2672 ft | 158 kts | 172° |
| 2026-04-20 15:38 | 57.20680 | -3.79262 | 2665 ft | 161 kts | 220° |
| 2026-04-20 15:38 | 57.19879 | -3.80694 | 2670 ft | 160 kts | 218° |
| 2026-04-20 15:38 | 57.19006 | -3.81985 | 2669 ft | 161 kts | 218° |
| 2026-04-20 15:39 | 57.18134 | -3.83285 | 2666 ft | 161 kts | 218° |
| 2026-04-20 15:39 | 57.17258 | -3.84588 | 2665 ft | 162 kts | 218° |
| 2026-04-20 15:39 | 57.16380 | -3.85894 | 2664 ft | 162 kts | 218° |
| 2026-04-20 15:39 | 57.15502 | -3.87194 | 2662 ft | 162 kts | 218° |
| 2026-04-20 15:40 | 57.14639 | -3.88477 | 2662 ft | 161 kts | 218° |
| 2026-04-20 15:40 | 57.13767 | -3.89773 | 2662 ft | 161 kts | 218° |
| 2026-04-20 15:40 | 57.12864 | -3.91001 | 2657 ft | 160 kts | 203° |
| 2026-04-20 15:40 | 57.11783 | -3.91216 | 2664 ft | 157 kts | 175° |
| 2026-04-20 15:41 | 57.10682 | -3.91124 | 2665 ft | 158 kts | 176° |
| 2026-04-20 15:41 | 57.09577 | -3.91048 | 2667 ft | 159 kts | 176° |
| 2026-04-20 15:41 | 57.08470 | -3.90954 | 2671 ft | 159 kts | 174° |
| 2026-04-20 15:41 | 57.07369 | -3.90704 | 2665 ft | 160 kts | 171° |
| 2026-04-20 15:42 | 57.06269 | -3.90436 | 2669 ft | 159 kts | 171° |
| 2026-04-20 15:42 | 57.05169 | -3.90171 | 2673 ft | 159 kts | 171° |
| 2026-04-20 15:42 | 57.04066 | -3.89968 | 2669 ft | 160 kts | 174° |
| 2026-04-20 15:42 | 57.02954 | -3.89891 | 2662 ft | 159 kts | 180° |
| 2026-04-20 15:43 | 57.01850 | -3.89979 | 2663 ft | 158 kts | 181° |
| 2026-04-20 15:43 | 57.00763 | -3.90067 | 2663 ft | 157 kts | 180° |
| 2026-04-20 15:43 | 56.99702 | -3.89762 | 2650 ft | 155 kts | 152° |
| 2026-04-20 15:43 | 56.98916 | -3.88465 | 2659 ft | 153 kts | 128° |
| 2026-04-20 15:44 | 56.98233 | -3.86960 | 2655 ft | 153 kts | 125° |
| 2026-04-20 15:44 | 56.97835 | -3.85181 | 2661 ft | 152 kts | 105° |
| 2026-04-20 15:44 | 56.97577 | -3.83301 | 2662 ft | 152 kts | 101° |
| 2026-04-20 15:44 | 56.97374 | -3.81402 | 2661 ft | 152 kts | 101° |
| 2026-04-20 15:45 | 56.97174 | -3.79507 | 2663 ft | 152 kts | 101° |
| 2026-04-20 15:45 | 56.96977 | -3.77634 | 2659 ft | 151 kts | 101° |
| 2026-04-20 15:45 | 56.96778 | -3.75741 | 2664 ft | 152 kts | 101° |
| 2026-04-20 15:45 | 56.96578 | -3.73841 | 2663 ft | 152 kts | 101° |
| 2026-04-20 15:46 | 56.96396 | -3.71922 | 2662 ft | 153 kts | 92° |
| 2026-04-20 15:46 | 56.96565 | -3.70004 | 2662 ft | 153 kts | 78° |
| 2026-04-20 15:46 | 56.96802 | -3.68096 | 2666 ft | 154 kts | 78° |
| 2026-04-20 15:46 | 56.97038 | -3.66186 | 2661 ft | 154 kts | 77° |
| 2026-04-20 15:47 | 56.97273 | -3.64275 | 2669 ft | 154 kts | 77° |
| 2026-04-20 15:47 | 56.97606 | -3.62402 | 2664 ft | 154 kts | 71° |
| 2026-04-20 15:47 | 56.97972 | -3.60561 | 2661 ft | 153 kts | 72° |
| 2026-04-20 15:47 | 56.98251 | -3.58677 | 2664 ft | 153 kts | 77° |
| 2026-04-20 15:48 | 56.98502 | -3.56782 | 2666 ft | 152 kts | 79° |
| 2026-04-20 15:48 | 56.98676 | -3.54860 | 2665 ft | 153 kts | 82° |
| 2026-04-20 15:48 | 56.98835 | -3.52957 | 2664 ft | 153 kts | 82° |
| 2026-04-20 15:48 | 56.98996 | -3.51021 | 2668 ft | 153 kts | 82° |
| 2026-04-20 15:49 | 56.99155 | -3.49090 | 2669 ft | 153 kts | 82° |
| 2026-04-20 15:49 | 56.99329 | -3.47154 | 2668 ft | 154 kts | 77° |
| 2026-04-20 15:49 | 56.99685 | -3.45304 | 2673 ft | 153 kts | 70° |
| 2026-04-20 15:49 | 57.00070 | -3.43474 | 2673 ft | 153 kts | 70° |
| 2026-04-20 15:50 | 57.00447 | -3.41667 | 2665 ft | 154 kts | 70° |
| 2026-04-20 15:50 | 57.00828 | -3.39839 | 2672 ft | 153 kts | 70° |
| 2026-04-20 15:50 | 57.01212 | -3.38010 | 2671 ft | 153 kts | 70° |
| 2026-04-20 15:50 | 57.01595 | -3.36174 | 2676 ft | 154 kts | 70° |
| 2026-04-20 15:51 | 57.01889 | -3.34317 | 2676 ft | 150 kts | 91° |
| 2026-04-20 15:51 | 57.01444 | -3.32626 | 2674 ft | 153 kts | 141° |
| 2026-04-20 15:51 | 57.00435 | -3.32191 | 2677 ft | 155 kts | 190° |
| 2026-04-20 15:51 | 56.99578 | -3.33346 | 2676 ft | 160 kts | 239° |
| 2026-04-20 15:52 | 56.99414 | -3.35342 | 2683 ft | 163 kts | 274° |
| 2026-04-20 15:52 | 56.99495 | -3.37399 | 2681 ft | 165 kts | 273° |
| 2026-04-20 15:52 | 56.99577 | -3.39481 | 2682 ft | 162 kts | 274° |
| 2026-04-20 15:53 | 56.99745 | -3.43623 | 2685 ft | 163 kts | 274° |
| 2026-04-20 15:53 | 56.99831 | -3.45700 | 2683 ft | 163 kts | 274° |
| 2026-04-20 15:53 | 56.99918 | -3.47790 | 2679 ft | 164 kts | 274° |
| 2026-04-20 15:53 | 56.99954 | -3.49855 | 2681 ft | 164 kts | 261° |
| 2026-04-20 15:54 | 56.99677 | -3.51876 | 2671 ft | 162 kts | 252° |
| 2026-04-20 15:54 | 56.99279 | -3.53806 | 2679 ft | 162 kts | 247° |
| 2026-04-20 15:54 | 56.98858 | -3.55722 | 2679 ft | 162 kts | 247° |
| 2026-04-20 15:54 | 56.98432 | -3.57655 | 2678 ft | 163 kts | 247° |
| 2026-04-20 15:55 | 56.98012 | -3.59572 | 2679 ft | 161 kts | 247° |
| 2026-04-20 15:55 | 56.97575 | -3.61464 | 2676 ft | 161 kts | 241° |
| 2026-04-20 15:55 | 56.96931 | -3.63074 | 2663 ft | 158 kts | 215° |
| 2026-04-20 15:55 | 56.95940 | -3.63901 | 2672 ft | 157 kts | 193° |
| 2026-04-20 15:56 | 56.94867 | -3.64292 | 2677 ft | 157 kts | 185° |
| 2026-04-20 15:56 | 56.93780 | -3.64537 | 2680 ft | 158 kts | 185° |
| 2026-04-20 15:56 | 56.92683 | -3.64784 | 2686 ft | 159 kts | 185° |
| 2026-04-20 15:56 | 56.91584 | -3.65102 | 2678 ft | 160 kts | 192° |
| 2026-04-20 15:57 | 56.90527 | -3.65645 | 2675 ft | 155 kts | 194° |
| 2026-04-20 15:57 | 56.89529 | -3.66357 | 2667 ft | 155 kts | 210° |
| 2026-04-20 15:57 | 56.88636 | -3.67457 | 2676 ft | 154 kts | 216° |
| 2026-04-20 15:57 | 56.87831 | -3.68797 | 2671 ft | 158 kts | 221° |
| 2026-04-20 15:58 | 56.87036 | -3.70194 | 2675 ft | 159 kts | 221° |
| 2026-04-20 15:58 | 56.86269 | -3.71642 | 2670 ft | 158 kts | 225° |
| 2026-04-20 15:58 | 56.85515 | -3.73114 | 2678 ft | 159 kts | 225° |
| 2026-04-20 15:58 | 56.84774 | -3.74550 | 2661 ft | 155 kts | 225° |
| 2026-04-20 15:59 | 56.84037 | -3.75982 | 2683 ft | 155 kts | 225° |
| 2026-04-20 15:59 | 56.83291 | -3.77437 | 2674 ft | 156 kts | 224° |
| 2026-04-20 15:59 | 56.82546 | -3.78892 | 2675 ft | 158 kts | 224° |
| 2026-04-20 15:59 | 56.81795 | -3.80364 | 2678 ft | 159 kts | 225° |
| 2026-04-20 16:00 | 56.81013 | -3.81798 | 2676 ft | 157 kts | 212° |
| 2026-04-20 16:00 | 56.79983 | -3.82336 | 2669 ft | 153 kts | 185° |
| 2026-04-20 16:00 | 56.78928 | -3.82606 | 2670 ft | 152 kts | 186° |
| 2026-04-20 16:00 | 56.77879 | -3.82894 | 2673 ft | 153 kts | 185° |
| 2026-04-20 16:01 | 56.76887 | -3.82524 | 2675 ft | 149 kts | 147° |
| 2026-04-20 16:01 | 56.76059 | -3.81377 | 2677 ft | 151 kts | 139° |
| 2026-04-20 16:01 | 56.75229 | -3.80178 | 2674 ft | 153 kts | 141° |
| 2026-04-20 16:01 | 56.74383 | -3.78994 | 2681 ft | 153 kts | 140° |
| 2026-04-20 16:02 | 56.73538 | -3.77813 | 2682 ft | 152 kts | 141° |
| 2026-04-20 16:02 | 56.72690 | -3.76650 | 2672 ft | 151 kts | 141° |
| 2026-04-20 16:02 | 56.71857 | -3.75493 | 2672 ft | 151 kts | 141° |
| 2026-04-20 16:02 | 56.71011 | -3.74332 | 2674 ft | 154 kts | 141° |
| 2026-04-20 16:03 | 56.70137 | -3.73129 | 2553 ft | 161 kts | 141° |
| 2026-04-20 16:03 | 56.69235 | -3.71883 | 2424 ft | 164 kts | 141° |
| 2026-04-20 16:03 | 56.68325 | -3.70613 | 2306 ft | 165 kts | 141° |
| 2026-04-20 16:03 | 56.67428 | -3.69363 | 2307 ft | 160 kts | 141° |
| 2026-04-20 16:04 | 56.66557 | -3.68144 | 2308 ft | 156 kts | 141° |
| 2026-04-20 16:04 | 56.65701 | -3.66949 | 2299 ft | 154 kts | 141° |
| 2026-04-20 16:04 | 56.64853 | -3.65771 | 2296 ft | 153 kts | 141° |
| 2026-04-20 16:04 | 56.64009 | -3.64624 | 2298 ft | 150 kts | 141° |
| 2026-04-20 16:05 | 56.63181 | -3.63498 | 2297 ft | 151 kts | 141° |
| 2026-04-20 16:05 | 56.62327 | -3.62348 | 2300 ft | 154 kts | 141° |
| 2026-04-20 16:05 | 56.61472 | -3.61193 | 2297 ft | 152 kts | 142° |
| 2026-04-20 16:05 | 56.60629 | -3.60041 | 2304 ft | 152 kts | 141° |
| 2026-04-20 16:06 | 56.59783 | -3.58885 | 2315 ft | 153 kts | 141° |
| 2026-04-20 16:06 | 56.58927 | -3.57722 | 2307 ft | 153 kts | 142° |
| 2026-04-20 16:06 | 56.58070 | -3.56563 | 2305 ft | 154 kts | 141° |
| 2026-04-20 16:06 | 56.57216 | -3.55418 | 2302 ft | 151 kts | 141° |
| 2026-04-20 16:07 | 56.56373 | -3.54289 | 2305 ft | 150 kts | 141° |
| 2026-04-20 16:07 | 56.55438 | -3.53421 | 2300 ft | 154 kts | 163° |
| 2026-04-20 16:07 | 56.54374 | -3.52992 | 2231 ft | 159 kts | 164° |
| 2026-04-20 16:07 | 56.53278 | -3.52545 | 2102 ft | 163 kts | 164° |
| 2026-04-20 16:08 | 56.52174 | -3.52091 | 1975 ft | 164 kts | 165° |
| 2026-04-20 16:08 | 56.51076 | -3.51636 | 1853 ft | 161 kts | 165° |
| 2026-04-20 16:08 | 56.50007 | -3.51200 | 1711 ft | 154 kts | 165° |
| 2026-04-20 16:08 | 56.49000 | -3.50790 | 1540 ft | 143 kts | 164° |
| 2026-04-20 16:09 | 56.48052 | -3.50414 | 1413 ft | 135 kts | 163° |
| 2026-04-20 16:09 | 56.47160 | -3.50079 | 1397 ft | 126 kts | 164° |
| 2026-04-20 16:09 | 56.46314 | -3.49759 | 1405 ft | 123 kts | 165° |
| 2026-04-20 16:09 | 56.45473 | -3.49437 | 1401 ft | 126 kts | 163° |
| 2026-04-20 16:10 | 56.44610 | -3.49116 | 1401 ft | 127 kts | 164° |
| 2026-04-20 16:10 | 56.43746 | -3.48804 | 1401 ft | 126 kts | 163° |
| 2026-04-20 16:10 | 56.42892 | -3.48477 | 1402 ft | 126 kts | 164° |
| 2026-04-20 16:10 | 56.42044 | -3.48093 | 1404 ft | 123 kts | 150° |
| 2026-04-20 16:11 | 56.41534 | -3.47002 | 1402 ft | 111 kts | 116° |
| 2026-04-20 16:11 | 56.41149 | -3.45800 | 1401 ft | 110 kts | 118° |
| 2026-04-20 16:11 | 56.40761 | -3.44594 | 1402 ft | 111 kts | 118° |
| 2026-04-20 16:11 | 56.40478 | -3.43390 | 1397 ft | 95 kts | 87° |
| 2026-04-20 16:12 | 56.40768 | -3.42446 | 1260 ft | 86 kts | 56° |
| 2026-04-20 16:12 | 56.41162 | -3.41684 | 1255 ft | 87 kts | 48° |
| 2026-04-20 16:12 | 56.41561 | -3.40857 | 1189 ft | 89 kts | 57° |
| 2026-04-20 16:12 | 56.41947 | -3.39960 | 1056 ft | 93 kts | 54° |
| 2026-04-20 16:13 | 56.42383 | -3.39105 | 863 ft | 92 kts | 36° |
| 2026-04-20 16:13 | 56.42934 | -3.38548 | 707 ft | 90 kts | 32° |
| 2026-04-20 16:13 | 56.43472 | -3.38024 | 534 ft | 87 kts | 36° |
| 2026-04-20 16:13 | 56.43979 | -3.37521 | 398 ft | 69 kts | 29° |
| 2026-04-20 16:14 | 56.44240 | -3.37271 | 393 ft | 20 kts | 30° |
| 2026-04-20 16:14 | 56.44303 | -3.37210 | 394 ft | 9 kts | 52° |
| 2026-04-20 16:14 | 56.44226 | -3.37079 | 398 ft | 20 kts | 153° |
| 2026-04-20 16:14 | 56.44039 | -3.36905 | 396 ft | 39 kts | 144° |
| 2026-04-20 16:15 | 56.43895 | -3.36725 | 395 ft | 34 kts | 149° |
| 2026-04-20 16:15 | 56.43765 | -3.36619 | 394 ft | 8 kts | 231° |
| 2026-04-20 16:15 | 56.43783 | -3.36779 | 396 ft | 19 kts | 264° |
| 2026-04-20 16:15 | 56.43769 | -3.37033 | 397 ft | 16 kts | 264° |
| 2026-04-20 16:16 | 56.43694 | -3.37078 | 396 ft | 16 kts | 183° |
| 2026-04-20 16:16 | 56.43633 | -3.37160 | 396 ft | 12 kts | 266° |
| 2026-04-20 16:16 | 56.43691 | -3.37205 | 396 ft | 8 kts | 319° |
| 2026-04-20 16:16 | 56.43689 | -3.37243 | 396 ft | 0 kts | 251° |